createdAt,value
2023-02-22T00:01:35.629Z,99071.31
2023-02-22T00:04:07.026Z,99072.59
2023-02-22T00:06:34.146Z,99076.81
2023-02-22T00:09:02.612Z,99054.47
2023-02-22T00:11:31.707Z,99062.38
2023-02-22T00:13:58.938Z,99065.63
2023-02-22T00:16:26.802Z,99067.09
2023-02-22T00:18:54.593Z,99078.09
2023-02-22T00:21:22.404Z,99073.22
2023-02-22T00:23:49.934Z,99054.13
2023-02-22T00:26:23.421Z,99066.75
2023-02-22T00:28:54.592Z,99058.63
2023-02-22T00:31:21.879Z,99067.56
2023-02-22T00:33:49.719Z,99068.19
2023-02-22T00:36:17.464Z,99072.59
2023-02-22T00:38:44.303Z,99067.72
2023-02-22T00:41:12.229Z,99071.47
2023-02-22T00:43:39.067Z,99054.94
2023-02-22T00:46:06.259Z,99067.56
2023-02-22T00:48:33.078Z,99058.00
2023-02-22T00:51:00.003Z,99061.38
2023-02-22T00:53:26.923Z,99067.81
2023-02-22T00:55:54.352Z,99066.56
2023-02-22T00:58:21.831Z,99057.00
2023-02-22T01:00:48.964Z,99056.00
2023-02-22T01:03:18.225Z,99038.50
2023-02-22T01:05:45.606Z,99074.75
2023-02-22T01:08:15.578Z,99075.38
2023-02-22T01:10:42.908Z,99060.47
2023-02-22T01:13:12.590Z,99068.91
2023-02-22T01:15:42.045Z,99069.53
2023-02-22T01:18:09.779Z,99068.72
2023-02-22T01:20:37.364Z,99067.56
2023-02-22T01:23:07.905Z,99066.56
2023-02-22T01:25:35.870Z,99068.19
2023-02-22T01:28:05.736Z,99068.19
2023-02-22T01:30:35.252Z,99063.81
2023-02-22T01:33:04.324Z,99070.94
2023-02-22T01:35:35.324Z,99070.81
2023-02-22T01:38:02.725Z,99066.63
2023-02-22T01:40:32.991Z,99064.19
2023-02-22T01:43:02.365Z,99059.00
2023-02-22T01:45:34.633Z,99068.72
2023-02-22T01:48:13.387Z,99064.03
2023-02-22T01:50:47.665Z,99063.69
2023-02-22T01:53:18.241Z,99056.22
2023-02-22T01:55:47.974Z,99065.41
2023-02-22T01:58:18.762Z,99050.00
2023-02-22T02:00:45.917Z,99051.44
2023-02-22T02:03:18.432Z,99059.00
2023-02-22T02:05:46.111Z,99059.63
2023-02-22T02:08:24.332Z,99045.59
2023-02-22T02:10:53.711Z,99045.25
2023-02-22T02:13:20.654Z,99052.22
2023-02-22T02:15:49.901Z,99052.34
2023-02-22T02:18:16.764Z,99063.94
2023-02-22T02:21:08.176Z,99065.69
2023-02-22T02:24:05.057Z,99043.38
2023-02-22T02:26:53.776Z,99051.16
2023-02-22T02:29:43.570Z,99065.19
2023-02-22T02:32:44.605Z,99062.09
2023-02-22T02:36:11.889Z,99064.63
2023-02-22T02:38:59.308Z,99060.81
2023-02-22T02:41:46.644Z,99065.88
2023-02-22T02:44:29.147Z,99067.44
2023-02-22T02:47:03.091Z,99063.88
2023-02-22T02:49:39.857Z,99072.31
2023-02-22T02:52:11.462Z,99064.69
2023-02-22T02:54:40.121Z,99067.69
2023-02-22T02:57:09.482Z,99064.94
2023-02-22T02:59:38.439Z,99075.94
2023-02-22T03:02:34.362Z,99073.50
2023-02-22T03:05:07.547Z,99079.03
2023-02-22T03:08:04.835Z,99059.47
2023-02-22T03:10:52.665Z,99065.81
2023-02-22T03:13:48.578Z,99017.84
2023-02-22T03:16:19.796Z,99068.44
2023-02-22T03:18:55.583Z,99065.44
2023-02-22T03:21:41.398Z,99068.19
2023-02-22T03:24:14.340Z,99076.28
2023-02-22T03:26:46.556Z,99055.22
2023-02-22T03:29:17.959Z,99069.44
2023-02-22T03:31:51.170Z,99083.03
2023-02-22T03:34:27.912Z,99075.13
2023-02-22T03:37:06.594Z,99083.69
2023-02-22T03:39:36.908Z,99081.28
2023-02-22T03:42:13.867Z,99072.56
2023-02-22T03:44:43.891Z,99079.69
2023-02-22T03:47:19.407Z,99074.19
2023-02-22T03:49:53.969Z,99074.66
2023-02-22T03:52:23.524Z,99093.13
2023-02-22T03:54:54.948Z,99091.50
2023-02-22T03:57:37.506Z,99090.38
2023-02-22T04:00:08.965Z,99094.38
2023-02-22T04:02:44.824Z,99084.19
2023-02-22T04:05:18.297Z,99091.13
2023-02-22T04:07:45.705Z,99085.91
2023-02-22T04:10:16.063Z,99085.81
2023-02-22T04:12:43.774Z,99082.69
2023-02-22T04:15:15.582Z,99079.25
2023-02-22T04:17:43.629Z,99068.56
2023-02-22T04:20:13.822Z,99075.78
2023-02-22T04:22:48.655Z,99070.09
2023-02-22T04:25:16.097Z,99077.09
2023-02-22T04:27:43.772Z,99072.34
2023-02-22T04:30:12.373Z,99082.31
2023-02-22T04:32:39.699Z,99067.59
2023-02-22T04:35:07.964Z,99081.50
2023-02-22T04:37:35.357Z,99075.41
2023-02-22T04:40:08.981Z,99080.56
2023-02-22T04:42:37.201Z,99074.59
2023-02-22T04:45:06.121Z,99093.38
2023-02-22T04:47:33.634Z,99079.75
2023-02-22T04:50:00.972Z,99089.59
2023-02-22T04:52:29.594Z,99089.81
2023-02-22T04:54:57.015Z,99097.03
2023-02-22T04:57:24.573Z,99091.75
2023-02-22T04:59:51.412Z,99082.38
2023-02-22T05:02:19.877Z,99078.94
2023-02-22T05:04:46.710Z,99082.69
2023-02-22T05:07:13.618Z,99095.06
2023-02-22T05:09:40.794Z,99085.66
2023-02-22T05:12:07.817Z,99088.72
2023-02-22T05:14:35.532Z,99101.97
2023-02-22T05:17:03.550Z,99101.47
2023-02-22T05:19:30.767Z,99116.81
2023-02-22T05:21:57.799Z,99099.88
2023-02-22T05:24:24.897Z,99097.25
2023-02-22T05:26:53.268Z,99098.72
2023-02-22T05:29:21.117Z,99082.41
2023-02-22T05:31:48.215Z,99100.59
2023-02-22T05:34:15.684Z,99092.66
2023-02-22T05:36:42.653Z,99090.84
2023-02-22T05:39:09.977Z,99098.84
2023-02-22T05:41:36.784Z,99106.47
2023-02-22T05:44:04.099Z,99108.78
2023-02-22T05:46:31.116Z,99120.56
2023-02-22T05:48:58.501Z,99130.78
2023-02-22T05:51:25.475Z,99111.28
2023-02-22T05:53:52.633Z,99119.06
2023-02-22T05:56:29.025Z,99132.44
2023-02-22T05:58:56.975Z,99143.69
2023-02-22T06:01:24.162Z,99136.97
2023-02-22T06:03:51.936Z,99155.69
2023-02-22T06:06:22.276Z,99150.06
2023-02-22T06:08:49.895Z,99145.78
2023-02-22T06:11:17.116Z,99141.44
2023-02-22T06:13:53.020Z,99163.53
2023-02-22T06:16:22.520Z,99160.16
2023-02-22T06:18:50.325Z,99164.13
2023-02-22T06:21:18.040Z,99159.31
2023-02-22T06:23:45.316Z,99170.06
2023-02-22T06:26:13.025Z,99168.97
2023-02-22T06:28:39.867Z,99162.72
2023-02-22T06:31:06.934Z,99179.56
2023-02-22T06:33:33.807Z,99185.25
2023-02-22T06:36:01.305Z,99170.56
2023-02-22T06:38:29.440Z,99173.19
2023-02-22T06:40:56.547Z,99157.81
2023-02-22T06:43:24.961Z,99175.34
2023-02-22T06:45:52.876Z,99167.56
2023-02-22T06:48:19.865Z,99177.78
2023-02-22T06:50:46.978Z,99164.50
2023-02-22T06:53:13.781Z,99173.41
2023-02-22T06:55:40.873Z,99169.03
2023-02-22T06:58:07.644Z,99153.13
2023-02-22T07:00:34.770Z,99178.72
2023-02-22T07:03:03.959Z,99192.16
2023-02-22T07:05:31.112Z,99178.38
2023-02-22T07:08:04.546Z,99182.25
2023-02-22T07:10:33.531Z,99167.47
2023-02-22T07:13:01.242Z,99164.00
2023-02-22T07:15:30.703Z,99171.75
2023-02-22T07:17:57.920Z,99174.34
2023-02-22T07:20:27.167Z,99176.31
2023-02-22T07:22:54.383Z,99171.72
2023-02-22T07:25:23.229Z,99184.38
2023-02-22T07:27:52.500Z,99170.38
2023-02-22T07:30:31.126Z,99182.56
2023-02-22T07:33:01.161Z,99188.56
2023-02-22T07:35:33.807Z,99178.09
2023-02-22T07:38:00.880Z,99176.19
2023-02-22T07:40:28.462Z,99181.31
2023-02-22T07:43:01.221Z,99187.56
2023-02-22T07:45:35.886Z,99177.63
2023-02-22T07:48:04.308Z,99173.41
2023-02-22T07:50:32.468Z,99175.22
2023-02-22T07:53:03.149Z,99168.16
2023-02-22T07:55:32.316Z,99168.47
2023-02-22T07:58:02.311Z,99171.63
2023-02-22T08:00:35.114Z,99164.69
2023-02-22T08:03:05.029Z,99164.59
2023-02-22T08:05:33.747Z,99172.69
2023-02-22T08:08:00.571Z,99170.25
2023-02-22T08:10:28.523Z,99173.50
2023-02-22T08:12:56.043Z,99166.25
2023-02-22T08:15:34.932Z,99171.44
2023-02-22T08:18:04.036Z,99174.72
2023-02-22T08:20:31.372Z,99165.03
2023-02-22T08:22:59.130Z,99162.03
2023-02-22T08:25:29.553Z,99168.63
2023-02-22T08:28:08.922Z,99159.69
2023-02-22T08:30:40.081Z,99164.19
2023-02-22T08:33:07.710Z,99160.03
2023-02-22T08:35:35.055Z,99164.16
2023-02-22T08:38:05.535Z,99155.31
2023-02-22T08:40:35.186Z,99168.13
2023-02-22T08:43:03.452Z,99170.88
2023-02-22T08:45:30.685Z,99157.25
2023-02-22T08:47:58.604Z,99157.47
2023-02-22T08:50:33.591Z,99164.84
2023-02-22T08:53:02.306Z,99170.16
2023-02-22T08:55:32.392Z,99166.34
2023-02-22T08:58:03.174Z,99172.00
2023-02-22T09:00:33.297Z,99173.81
2023-02-22T09:03:02.216Z,99160.19
2023-02-22T09:05:31.459Z,99171.47
2023-02-22T09:07:59.354Z,99166.63
2023-02-22T09:10:29.364Z,99162.25
2023-02-22T09:12:57.180Z,99169.72
2023-02-22T09:15:25.903Z,99169.28
2023-02-22T09:17:53.609Z,99163.75
2023-02-22T09:20:22.376Z,99155.31
2023-02-22T09:22:50.140Z,99164.19
2023-02-22T09:25:18.333Z,99165.31
2023-02-22T09:27:51.747Z,99161.28
2023-02-22T09:30:23.985Z,99149.47
2023-02-22T09:32:53.334Z,99168.16
2023-02-22T09:35:26.963Z,99158.97
2023-02-22T09:37:58.509Z,99154.84
2023-02-22T09:40:29.950Z,99159.13
2023-02-22T09:43:21.241Z,99149.38
2023-02-22T09:46:26.918Z,99156.50
2023-02-22T09:49:00.091Z,99146.03
2023-02-22T09:51:49.415Z,99154.75
2023-02-22T09:54:29.753Z,99157.34
2023-02-22T09:57:00.719Z,99151.44
2023-02-22T09:59:32.048Z,99149.81
2023-02-22T10:02:32.782Z,99115.84
2023-02-22T10:05:12.203Z,99141.50
2023-02-22T10:07:47.184Z,99138.56
2023-02-22T10:10:20.945Z,99149.03
2023-02-22T10:12:56.959Z,99146.16
2023-02-22T10:15:35.845Z,99147.22
2023-02-22T10:18:32.935Z,99142.91
2023-02-22T10:21:11.878Z,99144.28
2023-02-22T10:23:47.302Z,99130.84
2023-02-22T10:26:14.059Z,99138.38
2023-02-22T10:28:55.375Z,99139.09
2023-02-22T10:31:33.894Z,99139.00
2023-02-22T10:34:03.311Z,99127.59
2023-02-22T10:36:30.432Z,99127.53
2023-02-22T10:39:12.355Z,99109.50
2023-02-22T10:41:49.349Z,99109.25
2023-02-22T10:44:19.160Z,99109.50
2023-02-22T10:46:47.470Z,99100.09
2023-02-22T10:49:21.922Z,99094.38
2023-02-22T10:52:01.197Z,99102.91
2023-02-22T10:54:40.584Z,99107.06
2023-02-22T10:57:07.861Z,99102.97
2023-02-22T10:59:40.165Z,99110.13
2023-02-22T11:02:29.642Z,99098.47
2023-02-22T11:05:01.441Z,99086.47
2023-02-22T11:07:28.577Z,99100.13
2023-02-22T11:10:08.246Z,99096.47
2023-02-22T11:12:37.753Z,99104.59
2023-02-22T11:15:22.558Z,99092.16
2023-02-22T11:17:52.563Z,99080.69
2023-02-22T11:20:25.726Z,99091.72
2023-02-22T11:23:02.004Z,99096.19
2023-02-22T11:25:33.797Z,99087.78
2023-02-22T11:28:16.718Z,99085.78
2023-02-22T11:30:49.712Z,99075.25
2023-02-22T11:33:17.060Z,99084.53
2023-02-22T11:35:52.831Z,99096.63
2023-02-22T11:38:21.315Z,99085.19
2023-02-22T11:41:07.991Z,99072.34
2023-02-22T11:43:35.495Z,99083.09
2023-02-22T11:46:08.373Z,99076.81
2023-02-22T11:48:39.678Z,99078.56
2023-02-22T11:51:14.810Z,99064.44
2023-02-22T11:54:22.726Z,99065.38
2023-02-22T11:56:55.733Z,99070.34
2023-02-22T11:59:40.886Z,99067.81
2023-02-22T12:02:57.354Z,99061.66
2023-02-22T12:05:37.453Z,99060.19
2023-02-22T12:08:26.993Z,99068.53
2023-02-22T12:11:10.251Z,99059.00
2023-02-22T12:14:09.795Z,99068.81
2023-02-22T12:17:23.524Z,99048.84
2023-02-22T12:19:52.739Z,99055.34
2023-02-22T12:22:25.989Z,99062.91
2023-02-22T12:25:08.542Z,99058.56
2023-02-22T12:27:42.414Z,99062.47
2023-02-22T12:30:16.595Z,99049.81
2023-02-22T12:32:48.704Z,99054.19
2023-02-22T12:35:19.513Z,99061.94
2023-02-22T12:38:01.914Z,99046.72
2023-02-22T12:40:54.665Z,99049.56
2023-02-22T12:43:47.436Z,99034.97
2023-02-22T12:46:35.398Z,99034.78
2023-02-22T12:49:42.764Z,99045.06
2023-02-22T12:52:22.344Z,99049.69
2023-02-22T12:55:02.162Z,99047.22
2023-02-22T12:57:51.840Z,99055.50
2023-02-22T13:00:28.834Z,99024.19
2023-02-22T13:03:17.746Z,99051.03
2023-02-22T13:05:51.490Z,99045.41
2023-02-22T13:08:18.721Z,99050.06
2023-02-22T13:11:04.626Z,99053.75
2023-02-22T13:13:41.696Z,99045.34
2023-02-22T13:16:21.923Z,99041.16
2023-02-22T13:19:00.644Z,99055.19
2023-02-22T13:21:37.188Z,99067.78
2023-02-22T13:24:33.946Z,99050.44
2023-02-22T13:27:06.757Z,99060.56
2023-02-22T13:29:41.724Z,99057.13
2023-02-22T13:32:13.704Z,99037.41
2023-02-22T13:35:18.261Z,99060.78
2023-02-22T13:38:16.838Z,99046.84
2023-02-22T13:41:19.147Z,99049.06
2023-02-22T13:44:15.154Z,99060.19
2023-02-22T13:46:57.127Z,99059.22
2023-02-22T13:49:52.083Z,99064.13
2023-02-22T13:52:24.776Z,99063.84
2023-02-22T13:54:58.018Z,99061.00
2023-02-22T13:57:33.543Z,99065.31
2023-02-22T14:00:15.750Z,99070.44
2023-02-22T14:03:02.829Z,99051.56
2023-02-22T14:05:42.529Z,99070.44
2023-02-22T14:08:37.109Z,99068.97
2023-02-22T14:11:14.148Z,99066.47
2023-02-22T14:14:00.853Z,99060.91
2023-02-22T14:16:31.959Z,99044.25
2023-02-22T14:19:13.505Z,99054.56
2023-02-22T14:22:04.335Z,99066.19
2023-02-22T14:24:46.963Z,99059.53
2023-02-22T14:27:17.680Z,99056.38
2023-02-22T14:30:01.464Z,99063.75
2023-02-22T14:32:34.545Z,99050.66
2023-02-22T14:35:25.498Z,99063.56
2023-02-22T14:37:58.344Z,99059.47
2023-02-22T14:40:34.983Z,99010.22
2023-02-22T14:43:12.853Z,99060.09
2023-02-22T14:46:01.787Z,99064.09
2023-02-22T14:48:45.085Z,99059.78
2023-02-22T14:51:26.864Z,99056.56
2023-02-22T14:54:20.648Z,99058.09
2023-02-22T14:57:12.247Z,99060.41
2023-02-22T14:59:53.257Z,99058.00
2023-02-22T15:02:26.076Z,99046.09
2023-02-22T15:04:56.565Z,99050.56
2023-02-22T15:07:30.731Z,99056.63
2023-02-22T15:10:41.677Z,99062.56
2023-02-22T15:13:28.033Z,99070.28
2023-02-22T15:16:02.111Z,99062.94
2023-02-22T15:18:40.687Z,99065.94
2023-02-22T15:21:13.437Z,99052.69
2023-02-22T15:23:57.147Z,99069.78
2023-02-22T15:26:31.615Z,99071.03
2023-02-22T15:28:59.959Z,99071.22
2023-02-22T15:31:30.453Z,99065.81
2023-02-22T15:33:58.185Z,99072.25
2023-02-22T15:36:33.772Z,99068.59
2023-02-22T15:39:01.188Z,99061.03
2023-02-22T15:41:34.138Z,99072.78
2023-02-22T15:44:28.005Z,99091.94
2023-02-22T15:46:56.621Z,99066.75
2023-02-22T15:49:24.815Z,99084.03
2023-02-22T15:52:04.117Z,99016.00
2023-02-22T15:54:42.729Z,99083.31
2023-02-22T15:57:14.589Z,99042.50
2023-02-22T15:59:45.645Z,99092.34
2023-02-22T16:02:32.750Z,99080.13
2023-02-22T16:05:07.199Z,99089.59
2023-02-22T16:07:45.316Z,99076.59
2023-02-22T16:10:27.533Z,99096.22
2023-02-22T16:13:06.666Z,99097.72
2023-02-22T16:15:35.844Z,99092.06
2023-02-22T16:18:26.089Z,99090.81
2023-02-22T16:21:21.654Z,99110.19
2023-02-22T16:23:55.971Z,99107.66
2023-02-22T16:26:34.383Z,99112.38
2023-02-22T16:29:08.732Z,99091.81
2023-02-22T16:31:40.208Z,99114.28
2023-02-22T16:34:08.430Z,99113.25
2023-02-22T16:36:45.566Z,99121.66
2023-02-22T16:39:31.448Z,99121.63
2023-02-22T16:42:06.082Z,99121.59
2023-02-22T16:44:34.729Z,99127.06
2023-02-22T16:47:01.690Z,99141.78
2023-02-22T16:49:28.601Z,99135.53
2023-02-22T16:52:01.770Z,99135.94
2023-02-22T16:54:34.341Z,99137.19
2023-02-22T16:57:04.061Z,99142.56
2023-02-22T16:59:39.270Z,99109.63
2023-02-22T17:02:07.747Z,99138.81
2023-02-22T17:04:34.788Z,99140.47
2023-02-22T17:07:05.106Z,99139.72
2023-02-22T17:09:33.181Z,99146.44
2023-02-22T17:12:00.835Z,99147.63
2023-02-22T17:14:32.466Z,99132.28
2023-02-22T17:17:00.298Z,99145.13
2023-02-22T17:19:27.714Z,99150.50
2023-02-22T17:21:54.869Z,99151.53
2023-02-22T17:24:25.012Z,99146.13
2023-02-22T17:26:54.891Z,99144.88
2023-02-22T17:29:21.937Z,99156.72
2023-02-22T17:31:49.320Z,99147.78
2023-02-22T17:34:21.836Z,99148.78
2023-02-22T17:36:49.402Z,99158.66
2023-02-22T17:39:16.537Z,99171.47
2023-02-22T17:41:43.470Z,99182.78
2023-02-22T17:44:10.299Z,99179.38
2023-02-22T17:46:37.562Z,99179.88
2023-02-22T17:49:04.603Z,99172.59
2023-02-22T17:51:31.627Z,99172.75
2023-02-22T17:54:01.155Z,99177.13
2023-02-22T17:56:28.233Z,99189.28
2023-02-22T17:58:55.699Z,99188.31
2023-02-22T18:01:29.034Z,99176.97
2023-02-22T18:03:59.664Z,99177.44
2023-02-22T18:06:30.002Z,99178.41
2023-02-22T18:08:58.920Z,99190.06
2023-02-22T18:11:28.142Z,99187.31
2023-02-22T18:13:57.482Z,99188.13
2023-02-22T18:16:26.142Z,99186.38
2023-02-22T18:18:56.011Z,99185.53
2023-02-22T18:21:23.769Z,99180.84
2023-02-22T18:23:50.854Z,99195.41
2023-02-22T18:26:19.698Z,99190.88
2023-02-22T18:28:49.196Z,99189.53
2023-02-22T18:31:18.470Z,99191.13
2023-02-22T18:33:48.230Z,99187.56
2023-02-22T18:36:16.765Z,99206.03
2023-02-22T18:38:44.625Z,99200.69
2023-02-22T18:41:16.234Z,99192.06
2023-02-22T18:43:44.112Z,99202.38
2023-02-22T18:46:13.825Z,99210.63
2023-02-22T18:48:41.578Z,99195.53
2023-02-22T18:51:11.352Z,99194.59
2023-02-22T18:53:41.608Z,99184.50
2023-02-22T18:56:11.861Z,99194.50
2023-02-22T18:58:39.344Z,99209.38
2023-02-22T19:01:07.611Z,99202.75
2023-02-22T19:03:38.242Z,99190.69
2023-02-22T19:06:09.876Z,99210.56
2023-02-22T19:08:39.688Z,99222.66
2023-02-22T19:11:12.935Z,99207.88
2023-02-22T19:13:39.884Z,99221.09
2023-02-22T19:16:07.545Z,99221.41
2023-02-22T19:18:35.023Z,99233.06
2023-02-22T19:21:03.750Z,99210.00
2023-02-22T19:23:34.523Z,99215.56
2023-02-22T19:26:04.333Z,99238.34
2023-02-22T19:28:36.974Z,99236.84
2023-02-22T19:31:18.668Z,99231.78
2023-02-22T19:33:47.586Z,99231.31
2023-02-22T19:36:15.675Z,99245.13
2023-02-22T19:38:43.422Z,99245.03
2023-02-22T19:41:22.183Z,99239.03
2023-02-22T19:43:51.808Z,99239.16
2023-02-22T19:46:21.222Z,99244.13
2023-02-22T19:48:49.259Z,99255.63
2023-02-22T19:51:18.243Z,99253.81
2023-02-22T19:53:46.320Z,99246.50
2023-02-22T19:56:16.855Z,99260.53
2023-02-22T19:58:45.521Z,99248.13
2023-02-22T20:01:22.889Z,99248.03
2023-02-22T20:03:54.579Z,99253.53
2023-02-22T20:06:26.465Z,99247.66
2023-02-22T20:08:54.932Z,99250.06
2023-02-22T20:11:23.491Z,99253.63
2023-02-22T20:13:50.676Z,99257.88
2023-02-22T20:16:17.931Z,99263.34
2023-02-22T20:18:46.370Z,99270.63
2023-02-22T20:21:20.502Z,99169.06
2023-02-22T20:23:48.117Z,99262.78
2023-02-22T20:29:31.583Z,99272.19
2023-02-22T20:32:11.415Z,99265.09
2023-02-22T20:34:38.714Z,99269.34
2023-02-22T20:37:05.473Z,99238.94
2023-02-22T20:39:32.713Z,99254.00
2023-02-22T20:42:04.695Z,99261.72
2023-02-22T20:44:31.722Z,99257.50
2023-02-22T20:46:58.787Z,99262.59
2023-02-22T20:49:27.277Z,99258.31
2023-02-22T20:51:54.070Z,99258.41
2023-02-22T20:54:21.082Z,99249.50
2023-02-22T20:56:48.453Z,99259.88
2023-02-22T20:59:18.420Z,99247.25
2023-02-22T21:01:47.565Z,99255.75
2023-02-22T21:04:14.794Z,99253.31
2023-02-22T21:06:41.915Z,99236.66
2023-02-22T21:09:16.288Z,99245.22
2023-02-22T21:11:44.267Z,99242.09
2023-02-22T21:14:16.783Z,99261.69
2023-02-22T21:16:46.581Z,99264.56
2023-02-22T21:19:28.038Z,99247.44
2023-02-22T21:21:58.521Z,99257.34
2023-02-22T21:24:29.579Z,99245.66
2023-02-22T21:26:59.096Z,99254.97
2023-02-22T21:29:27.113Z,99254.81
2023-02-22T21:31:54.140Z,99261.66
2023-02-22T21:34:22.357Z,99243.31
2023-02-22T21:36:51.175Z,99257.81
2023-02-22T21:39:18.207Z,99248.84
2023-02-22T21:41:47.059Z,99252.44
2023-02-22T21:44:15.063Z,99251.63
2023-02-22T21:46:42.205Z,99258.19
2023-02-22T21:49:11.182Z,99240.22
2023-02-22T21:51:38.289Z,99241.66
2023-02-22T21:54:08.361Z,99257.22
2023-02-22T21:56:41.324Z,99253.72
2023-02-22T21:59:15.228Z,99252.00
2023-02-22T22:01:50.136Z,99233.44
2023-02-22T22:04:20.424Z,99250.16
2023-02-22T22:06:50.972Z,99253.22
2023-02-22T22:09:19.605Z,99246.47
2023-02-22T22:11:49.705Z,99251.91
2023-02-22T22:14:19.026Z,99253.56
2023-02-22T22:16:47.998Z,99255.75
2023-02-22T22:19:15.447Z,99243.78
2023-02-22T22:21:42.908Z,99252.53
2023-02-22T22:24:13.640Z,99237.34
2023-02-22T22:26:40.857Z,99243.00
2023-02-22T22:29:10.482Z,99247.13
2023-02-22T22:31:38.049Z,99257.50
2023-02-22T22:34:05.716Z,99237.94
2023-02-22T22:36:34.454Z,99235.81
2023-02-22T22:39:01.540Z,99244.59
2023-02-22T22:41:28.505Z,99260.16
2023-02-22T22:43:55.968Z,99251.47
2023-02-22T22:46:23.611Z,99261.34
2023-02-22T22:48:50.438Z,99255.41
2023-02-22T22:51:20.951Z,99259.44
2023-02-22T22:53:49.569Z,99259.72
2023-02-22T22:56:17.717Z,99259.47
2023-02-22T22:58:50.831Z,99253.03
2023-02-22T23:01:20.542Z,99261.72
2023-02-22T23:03:55.014Z,99241.56
2023-02-22T23:06:24.995Z,99264.91
2023-02-22T23:09:00.125Z,99251.25
2023-02-22T23:11:33.868Z,99239.28
2023-02-22T23:14:03.693Z,99257.53
2023-02-22T23:16:34.854Z,99243.69
2023-02-22T23:19:01.884Z,99242.63
2023-02-22T23:21:28.709Z,99234.38
2023-02-22T23:23:58.598Z,99244.41
2023-02-22T23:26:26.791Z,99239.78
2023-02-22T23:28:59.320Z,99251.22
2023-02-22T23:31:28.985Z,99250.69
2023-02-22T23:33:58.889Z,99241.44
2023-02-22T23:36:27.125Z,99249.88
2023-02-22T23:38:54.383Z,99249.16
2023-02-22T23:41:25.039Z,99244.81
2023-02-22T23:43:52.006Z,99244.00
2023-02-22T23:46:19.606Z,99261.97
2023-02-22T23:48:54.838Z,99236.66
2023-02-22T23:51:27.052Z,99247.72
2023-02-22T23:53:58.203Z,99246.16
2023-02-22T23:56:27.413Z,99238.59
2023-02-22T23:58:57.530Z,99237.22
